sensor_id;sensor_type;location;lat;lon;timestamp;pressure;altitude;pressure_sealevel;temperature;humidity
71964;BME280;59834;52.124;5.422;2022-09-20T00:00:47;102341.47;;;10.49;90.37
71964;BME280;59834;52.124;5.422;2022-09-20T00:03:15;102333.50;;;10.52;90.31
71964;BME280;59834;52.124;5.422;2022-09-20T00:05:43;102341.19;;;10.56;90.96
71964;BME280;59834;52.124;5.422;2022-09-20T00:08:14;102345.38;;;10.60;90.72
71964;BME280;59834;52.124;5.422;2022-09-20T00:10:48;102333.94;;;10.63;89.93
71964;BME280;59834;52.124;5.422;2022-09-20T00:13:15;102330.31;;;10.66;89.87
71964;BME280;59834;52.124;5.422;2022-09-20T00:15:43;102333.78;;;10.66;89.96
71964;BME280;59834;52.124;5.422;2022-09-20T00:18:11;102326.81;;;10.67;89.75
71964;BME280;59834;52.124;5.422;2022-09-20T00:20:45;102331.19;;;10.66;89.86
71964;BME280;59834;52.124;5.422;2022-09-20T00:23:12;102331.97;;;10.68;89.98
71964;BME280;59834;52.124;5.422;2022-09-20T00:25:39;102335.44;;;10.69;90.21
71964;BME280;59834;52.124;5.422;2022-09-20T00:28:06;102331.06;;;10.69;89.74
71964;BME280;59834;52.124;5.422;2022-09-20T00:30:33;102325.81;;;10.69;89.92
71964;BME280;59834;52.124;5.422;2022-09-20T00:33:00;102332.81;;;10.69;89.83
71964;BME280;59834;52.124;5.422;2022-09-20T00:35:28;102327.78;;;10.64;89.65
71964;BME280;59834;52.124;5.422;2022-09-20T00:37:54;102335.75;;;10.61;90.25
71964;BME280;59834;52.124;5.422;2022-09-20T00:40:22;102328.75;;;10.61;90.04
71964;BME280;59834;52.124;5.422;2022-09-20T00:42:49;102327.91;;;10.61;89.03
71964;BME280;59834;52.124;5.422;2022-09-20T00:45:23;102333.13;;;10.61;89.06
71964;BME280;59834;52.124;5.422;2022-09-20T00:48:06;102337.53;;;10.60;89.90
71964;BME280;59834;52.124;5.422;2022-09-20T00:50:43;102332.28;;;10.60;89.35
71964;BME280;59834;52.124;5.422;2022-09-20T00:53:15;102331.56;;;10.57;89.43
71964;BME280;59834;52.124;5.422;2022-09-20T00:55:50;102338.50;;;10.58;89.39
71964;BME280;59834;52.124;5.422;2022-09-20T00:58:18;102339.47;;;10.55;89.49
71964;BME280;59834;52.124;5.422;2022-09-20T01:00:45;102344.78;;;10.54;89.78
71964;BME280;59834;52.124;5.422;2022-09-20T01:03:16;102341.31;;;10.53;89.23
71964;BME280;59834;52.124;5.422;2022-09-20T01:05:45;102340.50;;;10.51;89.14
71964;BME280;59834;52.124;5.422;2022-09-20T01:08:12;102331.84;;;10.49;89.81
71964;BME280;59834;52.124;5.422;2022-09-20T01:10:38;102336.44;;;10.44;89.53
71964;BME280;59834;52.124;5.422;2022-09-20T01:13:05;102336.53;;;10.41;90.00
71964;BME280;59834;52.124;5.422;2022-09-20T01:15:33;102326.25;;;10.36;90.45
71964;BME280;59834;52.124;5.422;2022-09-20T01:18:01;102329.84;;;10.34;90.31
71964;BME280;59834;52.124;5.422;2022-09-20T01:20:30;102328.88;;;10.36;90.06
71964;BME280;59834;52.124;5.422;2022-09-20T01:23:07;102328.88;;;10.36;89.98
71964;BME280;59834;52.124;5.422;2022-09-20T01:28:17;102321.81;;;10.38;90.13
71964;BME280;59834;52.124;5.422;2022-09-20T01:30:52;102326.16;;;10.40;89.92
71964;BME280;59834;52.124;5.422;2022-09-20T01:34:17;102327.84;;;10.41;89.66
71964;BME280;59834;52.124;5.422;2022-09-20T01:36:49;102326.91;;;10.42;90.18
71964;BME280;59834;52.124;5.422;2022-09-20T01:42:14;102329.50;;;10.43;90.17
71964;BME280;59834;52.124;5.422;2022-09-20T02:02:08;102321.38;;;10.27;90.06
71964;BME280;59834;52.124;5.422;2022-09-20T02:04:57;102325.00;;;10.23;90.11
71964;BME280;59834;52.124;5.422;2022-09-20T02:13:38;102325.03;;;10.22;90.67
71964;BME280;59834;52.124;5.422;2022-09-20T02:21:43;102320.53;;;10.25;90.19
71964;BME280;59834;52.124;5.422;2022-09-20T02:33:13;102324.31;;;10.18;90.06
71964;BME280;59834;52.124;5.422;2022-09-20T02:35:51;102327.84;;;10.17;90.43
71964;BME280;59834;52.124;5.422;2022-09-20T02:38:48;102327.94;;;10.14;90.89
71964;BME280;59834;52.124;5.422;2022-09-20T02:44:35;102325.75;;;10.03;91.14
71964;BME280;59834;52.124;5.422;2022-09-20T02:47:05;102323.28;;;9.99;91.25
71964;BME280;59834;52.124;5.422;2022-09-20T02:49:44;102322.53;;;9.95;91.52
71964;BME280;59834;52.124;5.422;2022-09-20T02:52:42;102323.56;;;9.91;92.00
71964;BME280;59834;52.124;5.422;2022-09-20T02:55:26;102328.91;;;9.88;91.85
71964;BME280;59834;52.124;5.422;2022-09-20T02:58:22;102325.56;;;9.84;92.50
71964;BME280;59834;52.124;5.422;2022-09-20T03:00:57;102323.97;;;9.80;92.67
71964;BME280;59834;52.124;5.422;2022-09-20T03:03:38;102331.13;;;9.75;92.79
71964;BME280;59834;52.124;5.422;2022-09-20T03:06:18;102332.97;;;9.73;92.78
71964;BME280;59834;52.124;5.422;2022-09-20T03:08:55;102327.03;;;9.68;93.12
71964;BME280;59834;52.124;5.422;2022-09-20T03:11:52;102327.94;;;9.67;93.53
71964;BME280;59834;52.124;5.422;2022-09-20T03:14:31;102324.47;;;9.66;92.93
71964;BME280;59834;52.124;5.422;2022-09-20T03:17:05;102326.28;;;9.64;92.87
71964;BME280;59834;52.124;5.422;2022-09-20T03:22:57;102330.78;;;9.61;93.19
71964;BME280;59834;52.124;5.422;2022-09-20T03:28:47;102334.41;;;9.57;93.85
71964;BME280;59834;52.124;5.422;2022-09-20T03:34:27;102328.47;;;9.52;93.55
71964;BME280;59834;52.124;5.422;2022-09-20T03:40:16;102333.88;;;9.47;93.78
71964;BME280;59834;52.124;5.422;2022-09-20T03:42:50;102322.69;;;9.43;94.50
71964;BME280;59834;52.124;5.422;2022-09-20T03:45:21;102332.31;;;9.41;94.37
71964;BME280;59834;52.124;5.422;2022-09-20T03:50:46;102335.09;;;9.37;93.58
71964;BME280;59834;52.124;5.422;2022-09-20T04:04:32;102335.50;;;9.25;95.01
71964;BME280;59834;52.124;5.422;2022-09-20T04:12:48;102332.41;;;9.13;94.65
71964;BME280;59834;52.124;5.422;2022-09-20T04:26:06;102339.81;;;9.01;95.54
71964;BME280;59834;52.124;5.422;2022-09-20T04:28:47;102347.63;;;9.01;95.03
71964;BME280;59834;52.124;5.422;2022-09-20T04:31:28;102340.72;;;9.00;95.13
71964;BME280;59834;52.124;5.422;2022-09-20T04:33:58;102346.03;;;8.96;95.52
71964;BME280;59834;52.124;5.422;2022-09-20T04:36:54;102342.50;;;8.97;95.25
71964;BME280;59834;52.124;5.422;2022-09-20T04:39:47;102349.66;;;8.92;95.74
71964;BME280;59834;52.124;5.422;2022-09-20T04:42:37;102359.22;;;8.92;95.41
71964;BME280;59834;52.124;5.422;2022-09-20T05:05:39;102357.25;;;9.00;95.65
71964;BME280;59834;52.124;5.422;2022-09-20T05:11:23;102370.13;;;9.05;96.05
71964;BME280;59834;52.124;5.422;2022-09-20T05:14:18;102361.34;;;9.07;95.87
71964;BME280;59834;52.124;5.422;2022-09-20T05:28:20;102368.53;;;9.01;96.34
71964;BME280;59834;52.124;5.422;2022-09-20T05:31:01;102372.06;;;9.00;96.23
71964;BME280;59834;52.124;5.422;2022-09-20T05:33:50;102375.44;;;9.02;95.69
71964;BME280;59834;52.124;5.422;2022-09-20T05:36:53;102373.75;;;9.01;96.50
71964;BME280;59834;52.124;5.422;2022-09-20T05:39:32;102372.84;;;9.02;96.63
71964;BME280;59834;52.124;5.422;2022-09-20T05:42:19;102378.03;;;9.03;96.28
71964;BME280;59834;52.124;5.422;2022-09-20T05:44:54;102382.34;;;9.04;96.50
71964;BME280;59834;52.124;5.422;2022-09-20T05:52:58;102389.22;;;9.07;95.42
71964;BME280;59834;52.124;5.422;2022-09-20T06:01:25;102391.69;;;9.11;96.16
71964;BME280;59834;52.124;5.422;2022-09-20T06:04:11;102383.72;;;9.16;95.81
71964;BME280;59834;52.124;5.422;2022-09-20T06:07:02;102385.31;;;9.20;96.02
71964;BME280;59834;52.124;5.422;2022-09-20T06:20:57;102398.16;;;9.53;95.03
71964;BME280;59834;52.124;5.422;2022-09-20T06:23:26;102401.56;;;9.55;94.97
71964;BME280;59834;52.124;5.422;2022-09-20T06:26:01;102400.50;;;9.60;95.29
71964;BME280;59834;52.124;5.422;2022-09-20T06:28:37;102407.28;;;9.66;94.40
71964;BME280;59834;52.124;5.422;2022-09-20T06:31:06;102415.81;;;9.71;94.65
71964;BME280;59834;52.124;5.422;2022-09-20T06:33:40;102421.75;;;9.76;94.51
71964;BME280;59834;52.124;5.422;2022-09-20T06:36:17;102423.28;;;9.82;94.01
71964;BME280;59834;52.124;5.422;2022-09-20T06:42:06;102436.16;;;9.88;94.23
71964;BME280;59834;52.124;5.422;2022-09-20T06:44:35;102439.63;;;9.88;94.01
71964;BME280;59834;52.124;5.422;2022-09-20T06:47:09;102437.69;;;9.94;94.11
71964;BME280;59834;52.124;5.422;2022-09-20T06:49:35;102432.16;;;10.03;93.57
71964;BME280;59834;52.124;5.422;2022-09-20T06:52:20;102429.19;;;10.12;93.65
71964;BME280;59834;52.124;5.422;2022-09-20T06:54:53;102426.25;;;10.21;93.09
71964;BME280;59834;52.124;5.422;2022-09-20T06:57:31;102418.84;;;10.34;93.67
71964;BME280;59834;52.124;5.422;2022-09-20T06:59:57;102417.16;;;10.55;93.16
71964;BME280;59834;52.124;5.422;2022-09-20T07:02:24;102408.72;;;10.70;92.66
71964;BME280;59834;52.124;5.422;2022-09-20T07:04:52;102403.00;;;10.82;92.52
71964;BME280;59834;52.124;5.422;2022-09-20T07:07:20;102406.94;;;10.93;91.56
71964;BME280;59834;52.124;5.422;2022-09-20T07:09:47;102407.56;;;10.99;90.97
71964;BME280;59834;52.124;5.422;2022-09-20T07:12:13;102411.09;;;11.20;91.08
71964;BME280;59834;52.124;5.422;2022-09-20T07:14:40;102422.78;;;11.33;90.17
71964;BME280;59834;52.124;5.422;2022-09-20T07:17:06;102418.75;;;11.25;89.56
71964;BME280;59834;52.124;5.422;2022-09-20T07:19:33;102415.28;;;11.24;89.80
71964;BME280;59834;52.124;5.422;2022-09-20T07:22:02;102423.63;;;11.34;89.64
71964;BME280;59834;52.124;5.422;2022-09-20T07:24:28;102415.44;;;11.62;89.71
71964;BME280;59834;52.124;5.422;2022-09-20T07:27:00;102419.78;;;12.04;87.75
71964;BME280;59834;52.124;5.422;2022-09-20T07:29:27;102422.59;;;12.39;85.76
71964;BME280;59834;52.124;5.422;2022-09-20T07:31:55;102426.13;;;12.38;85.59
71964;BME280;59834;52.124;5.422;2022-09-20T07:34:22;102423.06;;;12.28;85.47
71964;BME280;59834;52.124;5.422;2022-09-20T07:36:49;102416.41;;;12.21;85.66
71964;BME280;59834;52.124;5.422;2022-09-20T07:39:16;102426.09;;;12.19;85.60
71964;BME280;59834;52.124;5.422;2022-09-20T07:41:43;102441.19;;;12.14;85.55
71964;BME280;59834;52.124;5.422;2022-09-20T07:44:15;102447.00;;;12.01;86.13
71964;BME280;59834;52.124;5.422;2022-09-20T07:46:51;102450.63;;;11.99;86.80
71964;BME280;59834;52.124;5.422;2022-09-20T07:49:20;102453.44;;;11.94;87.14
71964;BME280;59834;52.124;5.422;2022-09-20T07:51:48;102456.06;;;11.94;87.52
71964;BME280;59834;52.124;5.422;2022-09-20T07:54:15;102468.13;;;11.98;87.28
71964;BME280;59834;52.124;5.422;2022-09-20T07:56:42;102468.97;;;11.99;86.96
71964;BME280;59834;52.124;5.422;2022-09-20T07:59:10;102469.44;;;12.09;85.90
71964;BME280;59834;52.124;5.422;2022-09-20T08:01:38;102470.75;;;12.19;84.13
71964;BME280;59834;52.124;5.422;2022-09-20T08:04:05;102476.47;;;12.27;84.89
71964;BME280;59834;52.124;5.422;2022-09-20T08:06:36;102479.31;;;12.22;84.40
71964;BME280;59834;52.124;5.422;2022-09-20T08:09:04;102482.09;;;12.19;83.88
71964;BME280;59834;52.124;5.422;2022-09-20T08:11:38;102490.09;;;12.16;83.97
71964;BME280;59834;52.124;5.422;2022-09-20T08:14:05;102492.72;;;12.16;83.37
71964;BME280;59834;52.124;5.422;2022-09-20T08:16:47;102490.22;;;12.13;83.47
71964;BME280;59834;52.124;5.422;2022-09-20T08:19:18;102496.28;;;12.15;83.67
71964;BME280;59834;52.124;5.422;2022-09-20T08:21:46;102497.06;;;12.17;84.17
71964;BME280;59834;52.124;5.422;2022-09-20T08:24:13;102498.91;;;12.15;85.25
71964;BME280;59834;52.124;5.422;2022-09-20T08:26:42;102494.44;;;12.17;84.34
71964;BME280;59834;52.124;5.422;2022-09-20T08:29:09;102499.41;;;12.23;84.80
71964;BME280;59834;52.124;5.422;2022-09-20T08:31:38;102498.38;;;12.27;84.23
71964;BME280;59834;52.124;5.422;2022-09-20T08:34:10;102506.25;;;12.27;83.60
71964;BME280;59834;52.124;5.422;2022-09-20T08:36:40;102501.75;;;12.30;83.24
71964;BME280;59834;52.124;5.422;2022-09-20T08:39:08;102501.84;;;12.47;83.62
71964;BME280;59834;52.124;5.422;2022-09-20T08:42:00;102498.41;;;12.65;82.38
71964;BME280;59834;52.124;5.422;2022-09-20T08:44:45;102499.47;;;12.99;81.53
71964;BME280;59834;52.124;5.422;2022-09-20T08:47:16;102504.72;;;12.99;81.64
71964;BME280;59834;52.124;5.422;2022-09-20T08:49:44;102501.31;;;12.97;81.12
71964;BME280;59834;52.124;5.422;2022-09-20T08:52:45;102496.50;;;12.88;80.90
71964;BME280;59834;52.124;5.422;2022-09-20T08:57:51;102497.34;;;12.88;81.15
71964;BME280;59834;52.124;5.422;2022-09-20T09:00:21;102505.44;;;13.03;81.30
71964;BME280;59834;52.124;5.422;2022-09-20T09:02:57;102500.59;;;13.31;79.75
71964;BME280;59834;52.124;5.422;2022-09-20T09:05:35;102493.88;;;13.78;79.89
71964;BME280;59834;52.124;5.422;2022-09-20T09:08:09;102495.25;;;14.20;76.90
71964;BME280;59834;52.124;5.422;2022-09-20T09:10:45;102485.25;;;14.26;75.17
71964;BME280;59834;52.124;5.422;2022-09-20T09:13:41;102488.63;;;14.28;75.96
71964;BME280;59834;52.124;5.422;2022-09-20T09:16:15;102492.97;;;13.96;75.34
71964;BME280;59834;52.124;5.422;2022-09-20T09:18:49;102493.25;;;14.41;75.36
71964;BME280;59834;52.124;5.422;2022-09-20T09:21:27;102496.72;;;14.58;73.23
71964;BME280;59834;52.124;5.422;2022-09-20T09:24:05;102497.75;;;14.56;72.59
71964;BME280;59834;52.124;5.422;2022-09-20T09:26:37;102497.69;;;14.40;73.66
71964;BME280;59834;52.124;5.422;2022-09-20T09:29:17;102500.91;;;14.45;72.56
71964;BME280;59834;52.124;5.422;2022-09-20T09:31:46;102498.63;;;14.39;72.59
71964;BME280;59834;52.124;5.422;2022-09-20T09:34:27;102498.94;;;14.50;72.87
71964;BME280;59834;52.124;5.422;2022-09-20T09:36:55;102491.63;;;14.55;71.82
71964;BME280;59834;52.124;5.422;2022-09-20T09:39:29;102495.03;;;14.57;71.50
71964;BME280;59834;52.124;5.422;2022-09-20T09:41:56;102493.34;;;14.72;72.63
71964;BME280;59834;52.124;5.422;2022-09-20T09:44:31;102488.84;;;14.74;71.75
71964;BME280;59834;52.124;5.422;2022-09-20T09:47:00;102491.41;;;14.76;71.09
71964;BME280;59834;52.124;5.422;2022-09-20T09:49:30;102496.16;;;14.85;71.56
71964;BME280;59834;52.124;5.422;2022-09-20T09:54:46;102505.09;;;14.82;70.54
71964;BME280;59834;52.124;5.422;2022-09-20T10:00:11;102508.81;;;14.45;71.94
71964;BME280;59834;52.124;5.422;2022-09-20T10:09:27;102508.56;;;14.17;73.69
71964;BME280;59834;52.124;5.422;2022-09-20T10:11:53;102511.91;;;14.20;72.74
71964;BME280;59834;52.124;5.422;2022-09-20T10:14:43;102506.00;;;14.32;72.25
71964;BME280;59834;52.124;5.422;2022-09-20T10:23:17;102503.25;;;14.51;74.06
71964;BME280;59834;52.124;5.422;2022-09-20T10:31:45;102498.59;;;14.56;73.13
71964;BME280;59834;52.124;5.422;2022-09-20T10:34:20;102503.88;;;14.56;72.84
71964;BME280;59834;52.124;5.422;2022-09-20T10:36:58;102506.94;;;14.65;72.04
71964;BME280;59834;52.124;5.422;2022-09-20T10:39:38;102501.00;;;14.77;71.22
71964;BME280;59834;52.124;5.422;2022-09-20T10:42:31;102503.38;;;14.97;70.68
71964;BME280;59834;52.124;5.422;2022-09-20T10:45:23;102496.22;;;15.15;70.00
71964;BME280;59834;52.124;5.422;2022-09-20T10:48:31;102494.75;;;15.41;69.22
71964;BME280;59834;52.124;5.422;2022-09-20T10:51:03;102493.41;;;15.34;67.34
71964;BME280;59834;52.124;5.422;2022-09-20T10:56:34;102498.03;;;15.61;67.68
71964;BME280;59834;52.124;5.422;2022-09-20T10:59:19;102496.75;;;15.52;66.32
71964;BME280;59834;52.124;5.422;2022-09-20T11:02:04;102488.25;;;15.63;66.47
71964;BME280;59834;52.124;5.422;2022-09-20T11:07:46;102493.22;;;15.83;64.98
71964;BME280;59834;52.124;5.422;2022-09-20T11:10:21;102491.59;;;15.81;63.12
71964;BME280;59834;52.124;5.422;2022-09-20T11:12:59;102494.50;;;15.76;62.65
71964;BME280;59834;52.124;5.422;2022-09-20T11:18:42;102496.63;;;15.99;63.14
71964;BME280;59834;52.124;5.422;2022-09-20T11:21:25;102494.38;;;16.08;61.37
71964;BME280;59834;52.124;5.422;2022-09-20T11:23:59;102499.66;;;16.08;61.57
71964;BME280;59834;52.124;5.422;2022-09-20T11:26:35;102496.47;;;16.17;63.42
71964;BME280;59834;52.124;5.422;2022-09-20T11:31:52;102498.16;;;16.32;62.44
71964;BME280;59834;52.124;5.422;2022-09-20T11:34:25;102493.81;;;16.31;60.95
71964;BME280;59834;52.124;5.422;2022-09-20T11:36:56;102499.41;;;16.41;62.21
71964;BME280;59834;52.124;5.422;2022-09-20T11:39:36;102502.88;;;16.56;61.82
71964;BME280;59834;52.124;5.422;2022-09-20T11:42:04;102498.19;;;16.46;59.16
71964;BME280;59834;52.124;5.422;2022-09-20T11:44:35;102499.13;;;16.31;58.40
71964;BME280;59834;52.124;5.422;2022-09-20T11:47:29;102497.44;;;16.30;60.68
71964;BME280;59834;52.124;5.422;2022-09-20T11:56:22;102502.97;;;16.25;57.94
71964;BME280;59834;52.124;5.422;2022-09-20T11:59:02;102504.75;;;16.25;58.22
71964;BME280;59834;52.124;5.422;2022-09-20T12:01:31;102507.88;;;16.46;57.83
71964;BME280;59834;52.124;5.422;2022-09-20T12:04:19;102504.19;;;16.91;58.27
71964;BME280;59834;52.124;5.422;2022-09-20T12:07:02;102501.16;;;16.98;57.13
71964;BME280;59834;52.124;5.422;2022-09-20T12:09:37;102503.06;;;16.81;57.96
71964;BME280;59834;52.124;5.422;2022-09-20T12:12:16;102498.16;;;16.75;57.66
71964;BME280;59834;52.124;5.422;2022-09-20T12:14:56;102505.91;;;16.64;57.62
71964;BME280;59834;52.124;5.422;2022-09-20T12:28:56;102499.88;;;16.33;59.30
71964;BME280;59834;52.124;5.422;2022-09-20T12:36:37;102502.03;;;16.41;56.69
71964;BME280;59834;52.124;5.422;2022-09-20T12:41:59;102495.25;;;16.51;57.86
71964;BME280;59834;52.124;5.422;2022-09-20T12:44:34;102496.75;;;16.41;57.43
71964;BME280;59834;52.124;5.422;2022-09-20T12:52:38;102501.38;;;16.52;56.08
71964;BME280;59834;52.124;5.422;2022-09-20T12:55:35;102501.09;;;16.42;57.58
71964;BME280;59834;52.124;5.422;2022-09-20T13:05:48;102489.28;;;16.19;57.97
71964;BME280;59834;52.124;5.422;2022-09-20T13:08:20;102500.31;;;15.97;57.88
71964;BME280;59834;52.124;5.422;2022-09-20T13:11:11;102500.53;;;15.78;59.49
71964;BME280;59834;52.124;5.422;2022-09-20T13:13:48;102496.81;;;15.96;59.70
71964;BME280;59834;52.124;5.422;2022-09-20T13:24:45;102501.16;;;16.26;60.45
71964;BME280;59834;52.124;5.422;2022-09-20T13:27:20;102503.94;;;16.24;61.14
71964;BME280;59834;52.124;5.422;2022-09-20T13:29:48;102508.53;;;16.21;60.49
71964;BME280;59834;52.124;5.422;2022-09-20T13:32:25;102511.19;;;16.21;61.34
71964;BME280;59834;52.124;5.422;2022-09-20T13:35:17;102507.50;;;16.23;61.55
71964;BME280;59834;52.124;5.422;2022-09-20T13:37:51;102504.88;;;16.23;61.30
71964;BME280;59834;52.124;5.422;2022-09-20T13:43:03;102493.03;;;16.72;59.87
71964;BME280;59834;52.124;5.422;2022-09-20T13:45:55;102493.22;;;16.98;57.88
71964;BME280;59834;52.124;5.422;2022-09-20T13:48:26;102493.81;;;16.74;58.65
71964;BME280;59834;52.124;5.422;2022-09-20T13:50:54;102493.63;;;16.48;57.02
71964;BME280;59834;52.124;5.422;2022-09-20T13:53:24;102496.84;;;16.39;60.56
71964;BME280;59834;52.124;5.422;2022-09-20T13:56:24;102492.88;;;16.32;60.52
71964;BME280;59834;52.124;5.422;2022-09-20T13:58:53;102504.59;;;16.28;61.13
71964;BME280;59834;52.124;5.422;2022-09-20T14:01:30;102500.44;;;16.24;61.46
71964;BME280;59834;52.124;5.422;2022-09-20T14:04:07;102500.03;;;16.16;61.84
71964;BME280;59834;52.124;5.422;2022-09-20T14:06:34;102498.16;;;16.18;61.63
71964;BME280;59834;52.124;5.422;2022-09-20T14:09:04;102493.25;;;16.12;61.12
71964;BME280;59834;52.124;5.422;2022-09-20T14:11:36;102499.25;;;15.99;61.45
71964;BME280;59834;52.124;5.422;2022-09-20T14:14:04;102497.94;;;15.92;61.56
71964;BME280;59834;52.124;5.422;2022-09-20T14:16:43;102498.09;;;15.89;61.60
71964;BME280;59834;52.124;5.422;2022-09-20T14:19:17;102498.09;;;15.89;62.23
71964;BME280;59834;52.124;5.422;2022-09-20T14:21:46;102490.66;;;15.82;62.22
71964;BME280;59834;52.124;5.422;2022-09-20T14:26:41;102496.53;;;16.01;62.72
71964;BME280;59834;52.124;5.422;2022-09-20T14:32:09;102492.22;;;16.14;61.76
71964;BME280;59834;52.124;5.422;2022-09-20T14:34:40;102493.44;;;16.09;61.18
71964;BME280;59834;52.124;5.422;2022-09-20T14:37:49;102488.72;;;16.14;61.65
71964;BME280;59834;52.124;5.422;2022-09-20T14:40:28;102495.22;;;16.08;61.76
71964;BME280;59834;52.124;5.422;2022-09-20T14:43:01;102492.28;;;16.13;60.92
71964;BME280;59834;52.124;5.422;2022-09-20T14:45:35;102497.97;;;16.21;61.26
71964;BME280;59834;52.124;5.422;2022-09-20T14:48:05;102487.97;;;16.12;60.28
71964;BME280;59834;52.124;5.422;2022-09-20T14:50:40;102492.47;;;15.95;60.89
71964;BME280;59834;52.124;5.422;2022-09-20T14:55:37;102494.97;;;15.83;62.91
71964;BME280;59834;52.124;5.422;2022-09-20T14:58:12;102488.97;;;15.81;62.83
71964;BME280;59834;52.124;5.422;2022-09-20T15:00:54;102495.09;;;15.81;63.09
71964;BME280;59834;52.124;5.422;2022-09-20T15:03:28;102496.59;;;15.85;61.86
71964;BME280;59834;52.124;5.422;2022-09-20T15:05:56;102491.53;;;15.96;60.94
71964;BME280;59834;52.124;5.422;2022-09-20T15:08:23;102490.06;;;16.07;61.22
71964;BME280;59834;52.124;5.422;2022-09-20T15:10:50;102492.59;;;16.08;60.82
71964;BME280;59834;52.124;5.422;2022-09-20T15:13:17;102489.66;;;16.13;60.11
71964;BME280;59834;52.124;5.422;2022-09-20T15:15:47;102491.19;;;16.17;60.44
71964;BME280;59834;52.124;5.422;2022-09-20T15:18:24;102495.91;;;16.40;60.44
71964;BME280;59834;52.124;5.422;2022-09-20T15:20:53;102493.78;;;16.60;59.35
71964;BME280;59834;52.124;5.422;2022-09-20T15:23:20;102492.19;;;16.71;58.76
71964;BME280;59834;52.124;5.422;2022-09-20T15:25:51;102496.53;;;16.72;58.26
71964;BME280;59834;52.124;5.422;2022-09-20T15:28:19;102487.59;;;16.75;58.91
71964;BME280;59834;52.124;5.422;2022-09-20T15:30:47;102493.59;;;16.63;58.74
71964;BME280;59834;52.124;5.422;2022-09-20T15:33:17;102490.31;;;16.45;58.80
71964;BME280;59834;52.124;5.422;2022-09-20T15:35:44;102487.03;;;16.27;56.91
71964;BME280;59834;52.124;5.422;2022-09-20T15:38:11;102488.91;;;16.11;56.58
71964;BME280;59834;52.124;5.422;2022-09-20T15:40:42;102485.97;;;15.87;56.28
71964;BME280;59834;52.124;5.422;2022-09-20T15:43:14;102486.56;;;15.76;57.69
71964;BME280;59834;52.124;5.422;2022-09-20T15:45:49;102490.88;;;15.63;57.65
71964;BME280;59834;52.124;5.422;2022-09-20T15:48:22;102485.47;;;15.50;59.00
71964;BME280;59834;52.124;5.422;2022-09-20T15:51:04;102490.41;;;15.40;60.10
71964;BME280;59834;52.124;5.422;2022-09-20T15:53:34;102487.28;;;15.33;59.61
71964;BME280;59834;52.124;5.422;2022-09-20T15:56:04;102490.09;;;15.30;59.81
71964;BME280;59834;52.124;5.422;2022-09-20T15:58:32;102489.59;;;15.24;59.43
71964;BME280;59834;52.124;5.422;2022-09-20T16:01:06;102494.34;;;15.17;61.00
71964;BME280;59834;52.124;5.422;2022-09-20T16:03:34;102493.84;;;15.11;60.23
71964;BME280;59834;52.124;5.422;2022-09-20T16:06:04;102492.66;;;15.00;61.41
71964;BME280;59834;52.124;5.422;2022-09-20T16:08:32;102490.38;;;14.94;62.03
71964;BME280;59834;52.124;5.422;2022-09-20T16:11:00;102494.28;;;14.87;61.80
71964;BME280;59834;52.124;5.422;2022-09-20T16:13:27;102492.81;;;14.81;62.31
71964;BME280;59834;52.124;5.422;2022-09-20T16:15:58;102494.03;;;14.76;62.83
71964;BME280;59834;52.124;5.422;2022-09-20T16:18:28;102499.31;;;14.76;63.02
71964;BME280;59834;52.124;5.422;2022-09-20T16:21:15;102500.06;;;14.78;63.17
71964;BME280;59834;52.124;5.422;2022-09-20T16:23:48;102494.78;;;14.78;63.48
71964;BME280;59834;52.124;5.422;2022-09-20T16:26:15;102500.06;;;14.78;62.94
71964;BME280;59834;52.124;5.422;2022-09-20T16:28:42;102502.84;;;14.75;63.57
71964;BME280;59834;52.124;5.422;2022-09-20T16:31:52;102512.81;;;14.70;64.39
71964;BME280;59834;52.124;5.422;2022-09-20T16:36:48;102516.19;;;14.56;64.21
71964;BME280;59834;52.124;5.422;2022-09-20T16:39:17;102511.94;;;14.53;64.08
71964;BME280;59834;52.124;5.422;2022-09-20T16:41:47;102511.28;;;14.48;63.77
71964;BME280;59834;52.124;5.422;2022-09-20T16:44:14;102521.97;;;14.45;63.76
71964;BME280;59834;52.124;5.422;2022-09-20T16:46:41;102518.75;;;14.40;64.66
71964;BME280;59834;52.124;5.422;2022-09-20T16:49:10;102528.66;;;14.35;64.25
71964;BME280;59834;52.124;5.422;2022-09-20T16:51:40;102519.22;;;14.31;64.46
71964;BME280;59834;52.124;5.422;2022-09-20T16:54:11;102517.59;;;14.28;64.26
71964;BME280;59834;52.124;5.422;2022-09-20T16:56:43;102519.56;;;14.25;63.46
71964;BME280;59834;52.124;5.422;2022-09-20T16:59:11;102530.25;;;14.22;63.54
71964;BME280;59834;52.124;5.422;2022-09-20T17:01:39;102535.84;;;14.15;63.50
71964;BME280;59834;52.124;5.422;2022-09-20T17:04:05;102536.91;;;14.11;64.22
71964;BME280;59834;52.124;5.422;2022-09-20T17:06:34;102529.34;;;14.05;64.71
71964;BME280;59834;52.124;5.422;2022-09-20T17:09:02;102539.25;;;14.00;64.85
71964;BME280;59834;52.124;5.422;2022-09-20T17:11:31;102538.66;;;13.95;65.24
71964;BME280;59834;52.124;5.422;2022-09-20T17:13:58;102539.81;;;13.89;65.30
71964;BME280;59834;52.124;5.422;2022-09-20T17:16:27;102540.94;;;13.84;65.71
71964;BME280;59834;52.124;5.422;2022-09-20T17:18:58;102544.81;;;13.77;65.67
71964;BME280;59834;52.124;5.422;2022-09-20T17:21:26;102546.84;;;13.72;66.65
71964;BME280;59834;52.124;5.422;2022-09-20T17:23:55;102545.41;;;13.64;66.67
71964;BME280;59834;52.124;5.422;2022-09-20T17:26:24;102542.31;;;13.56;66.78
71964;BME280;59834;52.124;5.422;2022-09-20T17:28:54;102546.09;;;13.51;67.37
71964;BME280;59834;52.124;5.422;2022-09-20T17:31:30;102547.31;;;13.43;67.66
71964;BME280;59834;52.124;5.422;2022-09-20T17:34:00;102552.03;;;13.37;67.78
71964;BME280;59834;52.124;5.422;2022-09-20T17:36:30;102557.44;;;13.34;68.09
71964;BME280;59834;52.124;5.422;2022-09-20T17:38:58;102559.31;;;13.32;68.55